createdAt,value
2018-03-16T00:00:50.785Z,21.30
2018-03-16T00:02:54.317Z,21.03
2018-03-16T00:04:57.880Z,20.17
2018-03-16T00:07:01.570Z,21.97
2018-03-16T00:09:05.904Z,20.50
2018-03-16T00:11:09.456Z,18.10
2018-03-16T00:13:13.016Z,19.43
2018-03-16T00:15:16.609Z,20.40
2018-03-16T00:17:20.107Z,18.03
2018-03-16T00:19:26.256Z,20.43
2018-03-16T00:21:32.646Z,21.77
2018-03-16T00:23:38.090Z,19.57
2018-03-16T00:25:41.632Z,17.90
2018-03-16T00:27:45.229Z,20.27
2018-03-16T00:29:49.497Z,19.93
2018-03-16T00:31:53.315Z,19.40
2018-03-16T00:33:58.595Z,19.43
2018-03-16T00:36:02.885Z,19.50
2018-03-16T00:38:07.174Z,17.57
2018-03-16T00:40:12.178Z,19.70
2018-03-16T00:42:15.710Z,19.50
2018-03-16T00:44:21.431Z,19.37
2018-03-16T00:46:28.029Z,19.97
2018-03-16T00:48:32.038Z,18.90
2018-03-16T00:50:35.608Z,19.73
2018-03-16T00:52:39.202Z,19.47
2018-03-16T00:54:42.743Z,19.73
2018-03-16T00:56:47.012Z,19.23
2018-03-16T00:58:52.904Z,21.83
2018-03-16T01:00:57.002Z,20.60
2018-03-16T01:03:01.364Z,21.10
2018-03-16T01:05:05.819Z,20.67
2018-03-16T01:07:09.377Z,20.63
2018-03-16T01:09:12.945Z,19.33
2018-03-16T01:11:17.216Z,20.50
2018-03-16T01:13:20.738Z,21.37
2018-03-16T01:15:25.108Z,20.17
2018-03-16T01:17:28.631Z,20.67
2018-03-16T01:19:32.220Z,20.27
2018-03-16T01:21:35.796Z,20.73
2018-03-16T01:23:39.315Z,20.10
2018-03-16T01:25:42.846Z,19.83
2018-03-16T01:27:46.413Z,21.53
2018-03-16T01:29:50.010Z,20.27
2018-03-16T01:31:53.586Z,19.93
2018-03-16T01:33:57.075Z,17.60
2018-03-16T01:36:00.629Z,21.47
2018-03-16T01:38:04.209Z,17.90
2018-03-16T01:40:08.556Z,22.33
2018-03-16T01:42:12.095Z,17.93
2018-03-16T01:44:15.591Z,22.47
2018-03-16T01:46:19.127Z,23.53
2018-03-16T01:48:22.746Z,20.03
2018-03-16T01:50:26.379Z,21.77
2018-03-16T01:52:29.987Z,21.97
2018-03-16T01:54:34.340Z,21.33
2018-03-16T01:56:37.884Z,23.77
2018-03-16T01:58:41.389Z,22.27
2018-03-16T02:00:45.723Z,23.17
2018-03-16T02:02:49.342Z,21.27
2018-03-16T02:04:52.843Z,20.23
2018-03-16T02:06:56.353Z,22.90
2018-03-16T02:08:59.901Z,24.87
2018-03-16T02:11:03.402Z,20.33
2018-03-16T02:13:07.739Z,24.60
2018-03-16T02:15:11.267Z,23.83
2018-03-16T02:17:14.835Z,22.50
2018-03-16T02:19:18.439Z,22.23
2018-03-16T02:21:21.951Z,26.23
2018-03-16T02:23:25.544Z,26.20
2018-03-16T02:25:29.099Z,25.57
2018-03-16T02:27:32.662Z,23.27
2018-03-16T02:29:36.199Z,19.07
2018-03-16T02:31:39.785Z,24.17
2018-03-16T02:33:43.341Z,24.37
2018-03-16T02:35:46.926Z,24.03
2018-03-16T02:37:50.446Z,25.07
2018-03-16T02:39:54.785Z,22.40
2018-03-16T02:41:58.354Z,22.73
2018-03-16T02:44:01.887Z,25.77
2018-03-16T02:46:13.558Z,24.93
2018-03-16T02:48:18.768Z,26.13
2018-03-16T02:50:23.137Z,25.40
2018-03-16T02:52:26.707Z,25.30
2018-03-16T02:54:30.970Z,25.47
2018-03-16T02:56:34.574Z,24.00
2018-03-16T02:58:38.089Z,26.87
2018-03-16T03:00:41.674Z,25.20
2018-03-16T03:02:45.278Z,25.37
2018-03-16T03:04:49.582Z,23.60
2018-03-16T03:06:53.910Z,26.47
2018-03-16T03:08:57.458Z,26.37
2018-03-16T03:11:01.029Z,27.43
2018-03-16T03:13:04.581Z,27.20
2018-03-16T03:15:08.163Z,26.67
2018-03-16T03:17:11.751Z,21.97
2018-03-16T03:19:15.295Z,27.47
2018-03-16T03:21:19.574Z,26.17
2018-03-16T03:23:23.138Z,24.60
2018-03-16T03:25:26.729Z,25.90
2018-03-16T03:27:30.248Z,23.33
2018-03-16T03:29:33.761Z,26.57
2018-03-16T03:31:37.357Z,28.13
2018-03-16T03:33:40.890Z,26.03
2018-03-16T03:35:45.209Z,24.27
2018-03-16T03:37:48.778Z,24.17
2018-03-16T03:39:52.332Z,26.80
2018-03-16T03:41:55.935Z,25.03
2018-03-16T03:43:59.507Z,26.40
2018-03-16T03:46:03.005Z,26.40
2018-03-16T03:48:06.612Z,26.43
2018-03-16T03:50:10.137Z,27.27
2018-03-16T03:52:13.662Z,26.77
2018-03-16T03:54:17.247Z,27.50
2018-03-16T03:56:21.524Z,25.27
2018-03-16T03:58:26.547Z,23.73
2018-03-16T04:00:30.102Z,26.60
2018-03-16T04:02:34.431Z,26.03
2018-03-16T04:04:38.023Z,27.50
2018-03-16T04:06:41.592Z,24.43
2018-03-16T04:08:45.924Z,27.53
2018-03-16T04:10:50.287Z,27.47
2018-03-16T04:12:53.818Z,26.60
2018-03-16T04:14:57.411Z,25.80
2018-03-16T04:17:00.934Z,27.73
2018-03-16T04:19:04.543Z,23.87
2018-03-16T04:21:08.154Z,26.17
2018-03-16T04:23:11.649Z,27.07
2018-03-16T04:25:15.150Z,26.37
2018-03-16T04:27:18.766Z,27.00
2018-03-16T04:29:22.273Z,27.40
2018-03-16T04:31:25.777Z,26.20
2018-03-16T04:33:30.140Z,25.40
2018-03-16T04:35:34.431Z,26.03
2018-03-16T04:37:37.995Z,23.43
2018-03-16T04:39:41.523Z,27.03
2018-03-16T04:41:45.075Z,25.20
2018-03-16T04:43:48.616Z,24.10
2018-03-16T04:45:52.124Z,24.20
2018-03-16T04:47:55.674Z,27.30
2018-03-16T04:49:59.180Z,26.60
2018-03-16T04:52:02.741Z,26.57
2018-03-16T04:54:06.307Z,23.40
2018-03-16T04:56:09.866Z,26.23
2018-03-16T04:58:14.194Z,27.10
2018-03-16T05:00:18.494Z,24.67
2018-03-16T05:02:22.009Z,26.07
2018-03-16T05:04:25.562Z,25.43
2018-03-16T05:06:29.102Z,26.43
2018-03-16T05:08:32.635Z,26.27
2018-03-16T05:10:36.189Z,24.67
2018-03-16T05:12:39.719Z,28.20
2018-03-16T05:14:43.321Z,27.23
2018-03-16T05:16:46.916Z,27.00
2018-03-16T05:18:50.455Z,24.97
2018-03-16T05:20:54.746Z,25.10
2018-03-16T05:22:59.108Z,25.90
2018-03-16T05:25:02.622Z,25.83
2018-03-16T05:27:06.231Z,23.83
2018-03-16T05:29:09.755Z,26.13
2018-03-16T05:31:13.284Z,22.80
2018-03-16T05:33:16.852Z,24.43
2018-03-16T05:35:21.136Z,24.77
2018-03-16T05:37:24.617Z,24.20
2018-03-16T05:39:28.202Z,25.63
2018-03-16T05:41:31.748Z,24.60
2018-03-16T05:43:35.411Z,24.80
2018-03-16T05:45:38.977Z,25.90
2018-03-16T05:47:42.571Z,25.73
2018-03-16T05:49:46.381Z,23.47
2018-03-16T05:51:50.742Z,24.43
2018-03-16T05:53:54.280Z,24.93
2018-03-16T05:55:57.880Z,24.37
2018-03-16T05:58:01.433Z,24.07
2018-03-16T06:00:05.873Z,22.73
2018-03-16T06:02:09.432Z,23.77
2018-03-16T06:04:12.937Z,23.57
2018-03-16T06:06:16.474Z,24.17
2018-03-16T06:08:20.042Z,23.27
2018-03-16T06:10:24.376Z,22.53
2018-03-16T06:12:27.902Z,21.90
2018-03-16T06:14:31.486Z,23.97
2018-03-16T06:16:34.979Z,22.93
2018-03-16T06:18:38.511Z,24.03
2018-03-16T06:20:42.059Z,21.30
2018-03-16T06:22:45.581Z,22.90
2018-03-16T06:24:49.137Z,21.30
2018-03-16T06:26:53.578Z,23.13
2018-03-16T06:28:57.166Z,22.23
2018-03-16T06:31:00.665Z,22.23
2018-03-16T06:33:04.256Z,24.57
2018-03-16T06:35:07.802Z,23.60
2018-03-16T06:37:11.345Z,24.47
2018-03-16T06:39:14.910Z,24.13
2018-03-16T06:41:19.259Z,20.90
2018-03-16T06:43:22.846Z,23.00
2018-03-16T06:45:26.381Z,20.77
2018-03-16T06:47:30.005Z,22.80
2018-03-16T06:49:33.603Z,23.10
2018-03-16T06:51:37.927Z,19.10
2018-03-16T06:53:42.217Z,20.47
2018-03-16T06:55:45.742Z,23.77
2018-03-16T06:57:50.049Z,26.03
2018-03-16T06:59:53.566Z,25.17
2018-03-16T07:01:57.879Z,25.93
2018-03-16T07:04:01.455Z,23.53
2018-03-16T07:06:05.075Z,24.00
2018-03-16T07:08:08.605Z,25.73
2018-03-16T07:10:12.189Z,23.27
2018-03-16T07:12:15.767Z,22.43
2018-03-16T07:14:19.309Z,23.60
2018-03-16T07:16:23.069Z,23.20
2018-03-16T07:18:26.658Z,25.10
2018-03-16T07:20:30.311Z,22.47
2018-03-16T07:22:33.908Z,20.20
2018-03-16T07:24:38.315Z,22.53
2018-03-16T07:26:41.883Z,22.03
2018-03-16T07:28:45.409Z,24.40
2018-03-16T07:30:49.008Z,19.63
2018-03-16T07:32:52.531Z,22.27
2018-03-16T07:34:56.841Z,23.30
2018-03-16T07:37:01.172Z,23.20
2018-03-16T07:39:04.782Z,21.10
2018-03-16T07:41:08.438Z,18.33
2018-03-16T07:43:12.747Z,22.13
2018-03-16T07:45:16.970Z,21.43
2018-03-16T07:47:20.559Z,16.07
2018-03-16T07:49:24.099Z,21.50
2018-03-16T07:51:27.698Z,21.57
2018-03-16T07:53:31.280Z,21.37
2018-03-16T07:55:35.565Z,17.70
2018-03-16T07:57:39.208Z,20.33
2018-03-16T07:59:42.762Z,21.00
2018-03-16T08:01:47.071Z,22.17
2018-03-16T08:03:51.426Z,19.17
2018-03-16T08:05:54.950Z,20.23
2018-03-16T08:07:59.696Z,21.07
2018-03-16T08:10:03.280Z,20.77
2018-03-16T08:12:06.911Z,18.63
2018-03-16T08:14:10.534Z,19.40
2018-03-16T08:16:14.086Z,20.17
2018-03-16T08:18:17.638Z,19.17
2018-03-16T08:20:21.215Z,19.20
2018-03-16T08:22:24.775Z,18.97
2018-03-16T08:24:29.084Z,18.53
2018-03-16T08:26:33.269Z,17.77
2018-03-16T08:28:44.155Z,18.80
2018-03-16T08:30:58.034Z,17.60
2018-03-16T08:33:08.774Z,17.97
2018-03-16T08:35:21.252Z,15.90
2018-03-16T08:37:34.535Z,17.07
2018-03-16T08:39:48.212Z,16.50
2018-03-16T08:42:00.662Z,17.37
2018-03-16T08:44:14.204Z,16.77
2018-03-16T08:46:20.368Z,17.07
2018-03-16T08:48:25.365Z,17.07
2018-03-16T08:50:29.687Z,17.50
2018-03-16T08:52:33.250Z,17.73
2018-03-16T08:54:37.622Z,15.90
2018-03-16T08:56:41.859Z,17.90
2018-03-16T08:58:45.450Z,16.87
2018-03-16T09:00:48.975Z,17.57
2018-03-16T09:02:52.536Z,15.00
2018-03-16T09:04:56.108Z,17.40
2018-03-16T09:06:59.715Z,17.43
2018-03-16T09:09:03.356Z,15.17
2018-03-16T09:11:07.726Z,16.23
2018-03-16T09:13:11.239Z,16.70
2018-03-16T09:15:14.810Z,16.30
2018-03-16T09:17:18.306Z,16.60
2018-03-16T09:19:21.817Z,16.27
2018-03-16T09:21:25.363Z,16.37
2018-03-16T09:23:29.664Z,14.57
2018-03-16T09:25:33.294Z,15.20
2018-03-16T09:27:36.775Z,17.40
2018-03-16T09:29:40.348Z,13.90
2018-03-16T09:31:43.886Z,16.63
2018-03-16T09:33:47.649Z,15.93
2018-03-16T09:35:51.192Z,16.37
2018-03-16T09:37:54.759Z,17.03
2018-03-16T09:39:58.319Z,16.63
2018-03-16T09:42:01.955Z,17.30
2018-03-16T09:44:05.573Z,15.47
2018-03-16T09:46:09.114Z,15.17
2018-03-16T09:48:12.646Z,15.67
2018-03-16T09:50:16.970Z,16.07
2018-03-16T09:52:20.526Z,16.17
2018-03-16T09:54:24.862Z,16.17
2018-03-16T09:56:28.429Z,16.10
2018-03-16T09:58:31.985Z,16.57
2018-03-16T10:00:35.508Z,15.07
2018-03-16T10:02:39.096Z,16.10
2018-03-16T10:04:42.700Z,14.93
2018-03-16T10:06:46.220Z,14.97
2018-03-16T10:08:50.608Z,15.97
2018-03-16T10:10:54.131Z,14.10
2018-03-16T10:12:57.622Z,13.33
2018-03-16T10:15:01.195Z,15.60
2018-03-16T10:17:04.797Z,14.27
2018-03-16T10:19:08.310Z,13.20
2018-03-16T10:21:11.883Z,16.07
2018-03-16T10:23:15.428Z,14.03
2018-03-16T10:25:18.996Z,12.53
2018-03-16T10:27:22.641Z,14.60
2018-03-16T10:29:26.169Z,14.33
2018-03-16T10:31:29.689Z,15.97
2018-03-16T10:33:34.010Z,14.80
2018-03-16T10:35:37.583Z,12.00
2018-03-16T10:37:41.097Z,14.50
2018-03-16T10:39:44.685Z,15.50
2018-03-16T10:41:49.034Z,14.53
2018-03-16T10:43:52.579Z,14.37
2018-03-16T10:45:56.206Z,10.30
2018-03-16T10:48:00.533Z,14.73
2018-03-16T10:50:05.766Z,13.90
2018-03-16T10:52:09.321Z,13.27
2018-03-16T10:54:12.849Z,13.03
2018-03-16T10:56:16.470Z,12.47
2018-03-16T10:58:20.050Z,13.30
2018-03-16T11:00:29.887Z,12.00
2018-03-16T11:02:39.793Z,12.40
2018-03-16T11:04:43.367Z,11.33
2018-03-16T11:06:46.970Z,12.50
2018-03-16T11:08:50.579Z,11.17
2018-03-16T11:10:54.130Z,11.93
2018-03-16T11:12:57.685Z,11.87
2018-03-16T11:15:01.246Z,10.70
2018-03-16T11:17:04.868Z,11.50
2018-03-16T11:19:08.479Z,11.13
2018-03-16T11:21:12.058Z,11.10
2018-03-16T11:23:15.621Z,9.87
2018-03-16T11:25:19.215Z,11.10
2018-03-16T11:27:22.775Z,10.70
2018-03-16T11:29:27.148Z,10.73
2018-03-16T11:31:30.711Z,9.90
2018-03-16T11:33:35.018Z,8.50
2018-03-16T11:35:38.642Z,8.97
2018-03-16T11:37:42.201Z,10.70
2018-03-16T11:39:45.710Z,8.80
2018-03-16T11:41:49.297Z,9.43
2018-03-16T11:43:52.791Z,9.37
2018-03-16T11:45:57.135Z,9.23
2018-03-16T11:48:00.708Z,8.57
2018-03-16T11:50:04.369Z,9.27
2018-03-16T11:52:07.902Z,10.50
2018-03-16T11:54:12.174Z,8.57
2018-03-16T11:56:16.554Z,9.37
2018-03-16T11:58:20.039Z,9.43
2018-03-16T12:00:23.561Z,9.60
2018-03-16T12:02:27.121Z,8.27
2018-03-16T12:04:30.664Z,8.73
2018-03-16T12:06:34.167Z,8.80
2018-03-16T12:08:37.711Z,7.23
2018-03-16T12:10:41.213Z,8.37
2018-03-16T12:12:44.700Z,8.60
2018-03-16T12:14:48.294Z,8.50
2018-03-16T12:16:51.896Z,8.50
2018-03-16T12:18:55.414Z,8.27
2018-03-16T12:20:58.992Z,8.13
2018-03-16T12:23:02.550Z,8.27
2018-03-16T12:25:06.130Z,7.20
2018-03-16T12:27:09.624Z,7.97
2018-03-16T12:29:13.194Z,7.13
2018-03-16T12:31:16.705Z,7.60
2018-03-16T12:33:20.313Z,7.17
2018-03-16T12:35:23.910Z,7.13
2018-03-16T12:37:27.438Z,6.77
2018-03-16T12:39:31.046Z,7.17
2018-03-16T12:41:34.603Z,6.20
2018-03-16T12:43:38.427Z,7.07
2018-03-16T12:45:41.985Z,7.40
2018-03-16T12:47:45.555Z,7.33
2018-03-16T12:49:49.135Z,6.97
2018-03-16T12:51:53.447Z,7.13
2018-03-16T12:53:57.028Z,7.70
2018-03-16T12:56:01.326Z,7.63
2018-03-16T12:58:05.685Z,6.80
2018-03-16T13:00:10.007Z,7.00
2018-03-16T13:02:13.574Z,6.60
2018-03-16T13:04:17.136Z,6.27
2018-03-16T13:06:20.675Z,6.10
2018-03-16T13:08:24.240Z,6.80
2018-03-16T13:10:28.613Z,7.27
2018-03-16T13:12:32.164Z,6.97
2018-03-16T13:14:35.701Z,6.70
2018-03-16T13:16:39.340Z,7.20
2018-03-16T13:18:42.830Z,6.77
2018-03-16T13:20:46.367Z,6.70
2018-03-16T13:22:49.947Z,7.93
2018-03-16T13:24:54.289Z,6.97
2018-03-16T13:26:57.834Z,6.67
2018-03-16T13:29:01.414Z,6.53
2018-03-16T13:31:04.971Z,6.73
2018-03-16T13:33:08.573Z,6.67
2018-03-16T13:35:12.118Z,7.23
2018-03-16T13:37:15.637Z,6.03
2018-03-16T13:39:19.997Z,7.63
2018-03-16T13:41:23.523Z,6.80
2018-03-16T13:43:41.698Z,7.63
2018-03-16T13:45:45.286Z,6.30
2018-03-16T13:47:48.927Z,6.80
2018-03-16T13:49:52.530Z,6.53
2018-03-16T13:51:56.054Z,6.70
2018-03-16T13:53:59.554Z,6.60
2018-03-16T13:56:03.910Z,6.63
2018-03-16T13:58:07.436Z,6.13
2018-03-16T14:00:10.997Z,5.47
2018-03-16T14:02:14.597Z,3.90
2018-03-16T14:04:18.126Z,5.87
2018-03-16T14:06:22.453Z,6.03
2018-03-16T14:08:26.811Z,5.77
2018-03-16T14:10:30.299Z,5.90
2018-03-16T14:12:33.835Z,5.40
2018-03-16T14:14:37.402Z,5.63
2018-03-16T14:16:40.991Z,5.90
2018-03-16T14:18:44.524Z,5.10
2018-03-16T14:20:48.888Z,5.47
2018-03-16T14:22:52.468Z,5.93
2018-03-16T14:24:58.481Z,5.47
2018-03-16T14:27:02.707Z,5.10
2018-03-16T14:29:06.280Z,5.73
2018-03-16T14:31:09.887Z,5.43
2018-03-16T14:33:13.784Z,5.80
2018-03-16T14:35:17.330Z,5.47
2018-03-16T14:37:21.626Z,5.10
2018-03-16T14:39:25.208Z,5.60
2018-03-16T14:41:29.475Z,5.57
2018-03-16T14:43:32.984Z,4.90
2018-03-16T14:45:36.573Z,4.80
2018-03-16T14:47:40.106Z,5.93
2018-03-16T14:49:43.647Z,5.53
2018-03-16T14:51:47.246Z,5.00
2018-03-16T14:53:50.803Z,5.20
2018-03-16T14:55:54.319Z,5.37
2018-03-16T14:57:58.627Z,4.90
2018-03-16T15:00:02.971Z,4.87
2018-03-16T15:02:06.667Z,5.43
2018-03-16T15:04:10.236Z,5.13
2018-03-16T15:06:14.506Z,5.60
2018-03-16T15:08:18.899Z,4.10
2018-03-16T15:10:22.485Z,4.80
2018-03-16T15:12:26.036Z,5.13
2018-03-16T15:14:29.536Z,4.40
2018-03-16T15:16:33.107Z,4.20
2018-03-16T15:18:36.640Z,4.43
2018-03-16T15:20:40.141Z,4.13
2018-03-16T15:22:44.462Z,4.57
2018-03-16T15:24:48.785Z,3.57
2018-03-16T15:26:52.295Z,3.60
2018-03-16T15:28:55.881Z,3.43
2018-03-16T15:30:59.441Z,3.63
2018-03-16T15:33:02.935Z,3.33
2018-03-16T15:35:06.553Z,3.33
2018-03-16T15:37:10.819Z,3.60
2018-03-16T15:39:14.381Z,3.53
2018-03-16T15:41:17.954Z,3.53
2018-03-16T15:43:21.501Z,3.50
2018-03-16T15:45:25.026Z,3.60
2018-03-16T15:47:28.575Z,3.60
2018-03-16T15:49:32.108Z,3.90
2018-03-16T15:51:36.437Z,3.43
2018-03-16T15:53:40.712Z,3.03
2018-03-16T15:55:44.215Z,3.13
2018-03-16T15:57:47.846Z,2.87
2018-03-16T15:59:52.252Z,2.93
2018-03-16T16:01:56.538Z,3.10
2018-03-16T16:04:00.141Z,3.70
2018-03-16T16:06:03.692Z,2.93
2018-03-16T16:08:07.297Z,2.93
2018-03-16T16:10:10.871Z,2.60
2018-03-16T16:12:14.435Z,2.60
2018-03-16T16:14:18.024Z,2.80
2018-03-16T16:16:21.561Z,2.60
2018-03-16T16:18:25.108Z,2.70
2018-03-16T16:20:28.711Z,2.00
2018-03-16T16:22:32.218Z,2.67
2018-03-16T16:24:35.805Z,2.50
2018-03-16T16:26:39.332Z,3.00
2018-03-16T16:28:43.594Z,2.50
2018-03-16T16:30:47.222Z,2.60
2018-03-16T16:32:50.729Z,2.90
2018-03-16T16:34:55.074Z,2.93
2018-03-16T16:36:58.630Z,2.80
2018-03-16T16:39:02.189Z,2.70
2018-03-16T16:41:06.743Z,2.50
2018-03-16T16:43:10.276Z,2.70
2018-03-16T16:45:13.794Z,2.50
2018-03-16T16:47:17.325Z,2.50
2018-03-16T16:49:20.849Z,2.63
2018-03-16T16:51:25.162Z,2.83
2018-03-16T16:53:29.642Z,2.50
2018-03-16T16:55:33.200Z,2.80
2018-03-16T16:57:36.750Z,2.30
2018-03-16T16:59:41.083Z,2.87
2018-03-16T17:01:45.424Z,3.10
2018-03-16T17:03:48.951Z,2.10
2018-03-16T17:05:52.600Z,2.70
2018-03-16T17:07:56.142Z,2.40
2018-03-16T17:09:59.677Z,2.50
2018-03-16T17:12:03.257Z,2.50
2018-03-16T17:14:06.825Z,2.40
2018-03-16T17:16:11.200Z,2.50
2018-03-16T17:18:14.699Z,2.00
2018-03-16T17:20:18.220Z,2.30
2018-03-16T17:22:21.803Z,2.60
2018-03-16T17:24:25.320Z,2.77
2018-03-16T17:26:28.823Z,2.60
2018-03-16T17:28:32.419Z,2.47
2018-03-16T17:30:35.944Z,2.60
2018-03-16T17:32:39.552Z,2.43
2018-03-16T17:34:43.880Z,2.50
2018-03-16T17:36:47.392Z,2.53
2018-03-16T17:38:50.960Z,2.60
2018-03-16T17:40:54.562Z,2.37
2018-03-16T17:42:58.144Z,2.37
2018-03-16T17:45:01.982Z,2.70
2018-03-16T17:47:05.476Z,2.87
2018-03-16T17:49:09.000Z,2.93
2018-03-16T17:51:12.603Z,2.57
2018-03-16T17:53:16.103Z,2.43
2018-03-16T17:55:19.611Z,2.10
2018-03-16T17:57:23.183Z,2.90
2018-03-16T17:59:26.732Z,2.50
2018-03-16T18:01:30.312Z,2.70
2018-03-16T18:03:34.563Z,2.40
2018-03-16T18:05:38.096Z,2.27
2018-03-16T18:07:41.636Z,2.70
2018-03-16T18:09:45.186Z,2.00
2018-03-16T18:11:48.698Z,2.23
2018-03-16T18:13:53.075Z,2.80
2018-03-16T18:15:56.597Z,2.70
2018-03-16T18:18:00.106Z,2.40
2018-03-16T18:20:03.723Z,2.30
2018-03-16T18:22:07.232Z,2.43
2018-03-16T18:24:10.717Z,2.57
2018-03-16T18:26:14.283Z,2.33
2018-03-16T18:28:18.579Z,2.30
2018-03-16T18:30:22.145Z,2.27
2018-03-16T18:32:25.792Z,2.53
2018-03-16T18:34:30.108Z,2.70
2018-03-16T18:36:34.449Z,2.30
2018-03-16T18:38:37.991Z,2.70
2018-03-16T18:40:41.517Z,2.07
2018-03-16T18:42:45.089Z,2.73
2018-03-16T18:44:48.640Z,2.27
2018-03-16T18:46:52.159Z,2.40
2018-03-16T18:48:55.897Z,2.20
2018-03-16T18:51:00.186Z,2.53
2018-03-16T18:53:03.740Z,2.83
2018-03-16T18:55:07.389Z,2.40
2018-03-16T18:57:10.936Z,2.67
2018-03-16T18:59:14.521Z,2.50
2018-03-16T19:01:18.091Z,2.80
2018-03-16T19:03:22.406Z,2.37
2018-03-16T19:05:26.737Z,2.73
2018-03-16T19:07:30.256Z,2.30
2018-03-16T19:09:33.838Z,2.57
2018-03-16T19:11:37.395Z,2.60
2018-03-16T19:13:40.955Z,1.97
2018-03-16T19:15:44.598Z,2.10
2018-03-16T19:17:48.936Z,2.50
2018-03-16T19:19:52.442Z,2.60
2018-03-16T19:21:56.133Z,2.00
2018-03-16T19:24:00.392Z,2.70
2018-03-16T19:26:03.938Z,2.40
2018-03-16T19:28:07.465Z,2.10
2018-03-16T19:30:11.028Z,2.47
2018-03-16T19:32:14.652Z,2.57
2018-03-16T19:34:18.184Z,2.30
2018-03-16T19:36:21.755Z,2.80
2018-03-16T19:38:25.244Z,2.30
2018-03-16T19:40:28.859Z,2.33
2018-03-16T19:42:32.353Z,2.03
2018-03-16T19:44:35.918Z,2.30
2018-03-16T19:46:39.482Z,2.57
2018-03-16T19:48:44.486Z,2.13
2018-03-16T19:50:48.204Z,2.60
2018-03-16T19:52:54.572Z,2.97
2018-03-16T19:54:58.088Z,2.63
2018-03-16T19:57:01.580Z,2.17
2018-03-16T19:59:05.186Z,2.23
2018-03-16T20:01:08.777Z,2.00
2018-03-16T20:03:12.327Z,2.50
2018-03-16T20:05:15.897Z,2.67
2018-03-16T20:07:19.424Z,2.80
2018-03-16T20:09:23.037Z,2.07
2018-03-16T20:11:26.642Z,2.20
2018-03-16T20:13:30.205Z,1.83
2018-03-16T20:15:33.777Z,2.27
2018-03-16T20:17:37.330Z,2.03
2018-03-16T20:19:41.577Z,2.60
2018-03-16T20:21:45.142Z,1.90
2018-03-16T20:23:48.744Z,2.17
2018-03-16T20:25:52.314Z,2.27
2018-03-16T20:27:56.661Z,2.57
2018-03-16T20:30:00.188Z,2.37
2018-03-16T20:32:03.846Z,2.33
2018-03-16T20:34:07.453Z,2.87
2018-03-16T20:36:11.932Z,2.00
2018-03-16T20:38:16.284Z,1.77
2018-03-16T20:40:19.835Z,1.87
2018-03-16T20:42:24.180Z,1.90
2018-03-16T20:44:27.715Z,1.90
2018-03-16T20:46:31.280Z,2.40
2018-03-16T20:48:34.834Z,1.90
2018-03-16T20:50:38.362Z,2.37
2018-03-16T20:52:42.659Z,2.50
2018-03-16T20:54:46.957Z,2.20
2018-03-16T20:56:51.238Z,2.17
2018-03-16T20:58:54.793Z,2.27
2018-03-16T21:00:58.388Z,1.77
2018-03-16T21:03:02.704Z,1.80
2018-03-16T21:05:06.271Z,2.40
2018-03-16T21:07:10.586Z,2.30
2018-03-16T21:09:14.116Z,2.10
2018-03-16T21:11:17.673Z,2.30
2018-03-16T21:13:21.149Z,2.10
2018-03-16T21:15:25.590Z,2.07
2018-03-16T21:17:29.915Z,1.70
2018-03-16T21:19:34.221Z,1.97
2018-03-16T21:21:37.802Z,1.40
2018-03-16T21:23:42.186Z,1.90
2018-03-16T21:25:45.722Z,1.90
2018-03-16T21:27:49.615Z,2.00
2018-03-16T21:29:53.151Z,1.87
2018-03-16T21:31:57.453Z,1.70
2018-03-16T21:34:01.751Z,1.80
2018-03-16T21:36:05.317Z,1.90
2018-03-16T21:38:08.922Z,2.37
2018-03-16T21:40:14.209Z,1.50
2018-03-16T21:42:17.767Z,1.77
2018-03-16T21:44:21.319Z,2.20
2018-03-16T21:46:24.796Z,2.10
2018-03-16T21:48:28.346Z,1.87
2018-03-16T21:50:31.919Z,1.90
2018-03-16T21:52:35.427Z,2.40
2018-03-16T21:54:39.324Z,2.40
2018-03-16T21:56:42.859Z,1.83
2018-03-16T21:58:46.472Z,1.23
2018-03-16T22:00:49.993Z,2.03
2018-03-16T22:02:53.542Z,1.93
2018-03-16T22:04:57.064Z,1.80
2018-03-16T22:07:00.606Z,1.90
2018-03-16T22:09:04.715Z,2.10
2018-03-16T22:11:09.091Z,2.17
2018-03-16T22:13:12.612Z,2.10
2018-03-16T22:15:16.157Z,2.13
2018-03-16T22:17:19.677Z,2.20
2018-03-16T22:19:23.228Z,1.97
2018-03-16T22:21:26.733Z,2.10
2018-03-16T22:23:31.066Z,1.93
2018-03-16T22:25:35.447Z,1.90
2018-03-16T22:27:39.061Z,2.07
2018-03-16T22:29:43.398Z,1.87
2018-03-16T22:31:46.936Z,1.90
2018-03-16T22:33:50.469Z,1.87
2018-03-16T22:35:54.815Z,1.93
2018-03-16T22:37:58.380Z,2.00
2018-03-16T22:40:01.990Z,1.93
2018-03-16T22:42:05.630Z,1.90
2018-03-16T22:44:09.187Z,2.00
2018-03-16T22:46:13.513Z,2.33
2018-03-16T22:48:17.064Z,1.97
2018-03-16T22:50:21.381Z,1.93
2018-03-16T22:52:25.729Z,1.63
2018-03-16T22:54:29.319Z,2.50
2018-03-16T22:56:32.922Z,1.90
2018-03-16T22:58:36.418Z,1.47
2018-03-16T23:00:40.044Z,2.03
2018-03-16T23:02:44.432Z,2.17
2018-03-16T23:04:48.004Z,1.97
2018-03-16T23:06:52.345Z,2.10
2018-03-16T23:08:55.857Z,1.97
2018-03-16T23:10:59.376Z,2.00
2018-03-16T23:13:02.981Z,1.97
2018-03-16T23:15:06.568Z,2.40
2018-03-16T23:17:10.154Z,1.93
2018-03-16T23:19:13.711Z,2.13
2018-03-16T23:21:17.222Z,2.10
2018-03-16T23:23:20.797Z,2.40
2018-03-16T23:25:25.200Z,2.37
2018-03-16T23:27:28.775Z,1.90
2018-03-16T23:29:32.285Z,2.20
2018-03-16T23:31:35.989Z,2.40
2018-03-16T23:33:39.587Z,2.37
2018-03-16T23:35:43.875Z,2.50
2018-03-16T23:37:47.406Z,2.50
2018-03-16T23:39:51.036Z,2.40
2018-03-16T23:41:54.535Z,1.87
2018-03-16T23:43:58.070Z,2.63
2018-03-16T23:46:02.425Z,2.10
2018-03-16T23:48:05.995Z,2.30
2018-03-16T23:50:09.651Z,3.37
2018-03-16T23:52:13.202Z,2.30
2018-03-16T23:54:16.751Z,2.10
2018-03-16T23:56:21.138Z,2.43
2018-03-16T23:58:24.693Z,2.17
